EIKY/KIR METAR and TAF weather

Enter ICAO airport designator
Station Type Date Time Source
EIKY METAR 2021/07/27 14:30 UTC NOAA

EIKY 271430Z 31010KT 240V340 9999 FEW028 BKN041 17/12 Q1011


Station Type Date Time Source
EIKY Decoded METAR 2021/07/27 14:30 UTC NOAA

Station name not available
Jul 27, 2021 - 10:30 AM EDT / 2021.07.27 1430 UTC
Wind: from the NW (310 degrees) at 12 MPH (10 KT) (direction variable):0
Visibility: greater than 7 mile(s):0
Sky conditions: mostly cloudy
Temperature: 62 F (17 C)
Dew Point: 53 F (12 C)
Relative Humidity: 72%
Pressure (altimeter): 29.85 in. Hg (1011 hPa)
ob: EIKY 271430Z 31010KT 240V340 9999 FEW028 BKN041 17/12 Q1011
cycle: 14

Station Type Date Time Source
EIKY TAF UTC NOAA

Error!

Example: see airport list